createdAt,value
2023-05-24T00:01:51.862Z,3.50
2023-05-24T00:07:14.245Z,2.67
2023-05-24T00:12:36.825Z,3.07
2023-05-24T00:17:59.238Z,2.87
2023-05-24T00:23:21.717Z,2.50
2023-05-24T00:28:44.058Z,2.97
2023-05-24T00:34:07.806Z,2.97
2023-05-24T00:39:30.426Z,2.77
2023-05-24T00:44:52.947Z,2.90
2023-05-24T00:50:17.395Z,2.73
2023-05-24T00:55:40.132Z,2.67
2023-05-24T01:01:06.138Z,3.03
2023-05-24T01:06:28.662Z,2.60
2023-05-24T01:12:02.798Z,3.00
2023-05-24T01:17:46.384Z,3.10
2023-05-24T01:23:25.142Z,2.70
2023-05-24T01:28:48.901Z,3.17
2023-05-24T01:34:12.233Z,2.47
2023-05-24T01:39:36.359Z,2.40
2023-05-24T01:45:33.092Z,1.93
2023-05-24T01:51:00.080Z,2.57
2023-05-24T01:56:23.024Z,2.63
2023-05-24T02:01:48.039Z,2.13
2023-05-24T02:07:10.607Z,2.50
2023-05-24T02:12:33.523Z,2.53
2023-05-24T02:17:55.833Z,2.30
2023-05-24T02:23:18.487Z,2.60
2023-05-24T02:28:41.096Z,2.80
2023-05-24T02:34:03.466Z,2.40
2023-05-24T02:39:26.303Z,2.73
2023-05-24T02:44:49.643Z,2.53
2023-05-24T02:50:12.410Z,2.33
2023-05-24T02:55:34.672Z,2.20
2023-05-24T03:00:56.837Z,3.33
2023-05-24T03:06:19.415Z,2.70
2023-05-24T03:11:41.750Z,2.43
2023-05-24T03:17:04.271Z,2.53
2023-05-24T03:22:26.914Z,2.60
2023-05-24T03:27:49.315Z,2.60
2023-05-24T03:33:11.819Z,2.57
2023-05-24T03:38:34.687Z,2.20
2023-05-24T03:43:57.210Z,2.07
2023-05-24T03:49:19.657Z,1.80
2023-05-24T03:54:42.056Z,1.97
2023-05-24T04:00:07.250Z,1.97
2023-05-24T04:05:36.228Z,1.87
2023-05-24T04:10:59.650Z,2.10
2023-05-24T04:16:24.266Z,2.20
2023-05-24T04:21:46.839Z,2.03
2023-05-24T04:27:10.035Z,1.97
2023-05-24T04:32:32.822Z,2.27
2023-05-24T04:37:55.169Z,2.47
2023-05-24T04:43:17.644Z,2.13
2023-05-24T04:48:40.106Z,2.53
2023-05-24T04:54:08.688Z,2.23
2023-05-24T04:59:31.280Z,2.30
2023-05-24T05:04:53.783Z,2.40
2023-05-24T05:10:16.706Z,2.90
2023-05-24T05:15:40.023Z,1.97
2023-05-24T05:21:04.063Z,2.27
2023-05-24T05:26:29.926Z,2.47
2023-05-24T05:31:52.701Z,2.33
2023-05-24T05:37:15.016Z,2.60
2023-05-24T05:42:37.564Z,2.23
2023-05-24T05:47:59.903Z,2.53
2023-05-24T05:53:22.633Z,2.70
2023-05-24T05:58:45.019Z,2.77
2023-05-24T06:04:08.114Z,2.60
2023-05-24T06:09:30.832Z,2.43
2023-05-24T06:14:53.133Z,2.90
2023-05-24T06:20:17.099Z,2.90
2023-05-24T06:25:40.585Z,2.80
2023-05-24T06:31:06.204Z,2.73
2023-05-24T06:36:28.297Z,2.57
2023-05-24T06:41:51.559Z,3.10
2023-05-24T06:47:20.906Z,3.13
2023-05-24T06:52:44.263Z,3.33
2023-05-24T06:58:09.452Z,3.10
2023-05-24T07:03:32.566Z,3.70
2023-05-24T07:08:55.301Z,3.00
2023-05-24T07:14:17.965Z,3.20
2023-05-24T07:19:40.796Z,3.73
2023-05-24T07:25:04.648Z,3.60
2023-05-24T07:30:34.849Z,3.40
2023-05-24T07:35:57.073Z,3.07
2023-05-24T07:41:19.818Z,3.80
2023-05-24T07:46:42.221Z,3.27
2023-05-24T07:52:06.272Z,3.83
2023-05-24T07:57:29.446Z,3.20
2023-05-24T08:02:52.477Z,3.00
2023-05-24T08:08:15.775Z,4.23
2023-05-24T08:13:38.646Z,2.87
2023-05-24T08:19:01.060Z,3.00
2023-05-24T08:24:24.089Z,2.60
2023-05-24T08:29:46.693Z,2.83
2023-05-24T08:35:20.117Z,2.83
2023-05-24T08:40:43.614Z,2.90
2023-05-24T08:46:07.602Z,3.03
2023-05-24T08:51:31.712Z,2.70
2023-05-24T08:56:54.235Z,2.10
2023-05-24T09:02:20.119Z,2.60
2023-05-24T09:07:46.447Z,2.93
2023-05-24T09:13:10.122Z,2.90
2023-05-24T09:18:32.525Z,3.07
2023-05-24T09:23:55.896Z,2.87
2023-05-24T09:29:23.023Z,3.53
2023-05-24T09:34:49.364Z,3.17
2023-05-24T09:40:21.210Z,3.10
2023-05-24T09:45:47.189Z,2.80
2023-05-24T09:51:10.407Z,3.10
2023-05-24T09:56:36.070Z,3.40
2023-05-24T10:02:10.550Z,3.30
2023-05-24T10:07:35.021Z,4.00
2023-05-24T10:12:58.133Z,3.23
2023-05-24T10:18:20.624Z,3.10
2023-05-24T10:23:44.652Z,2.90
2023-05-24T10:29:16.206Z,2.73
2023-05-24T10:34:39.748Z,3.60
2023-05-24T10:40:02.260Z,3.83
2023-05-24T10:45:24.694Z,3.03
2023-05-24T10:50:47.576Z,3.03
2023-05-24T10:56:10.038Z,3.50
2023-05-24T11:01:33.738Z,3.50
2023-05-24T11:07:01.834Z,3.10
2023-05-24T11:12:31.669Z,3.07
2023-05-24T11:18:14.449Z,3.10
2023-05-24T11:23:38.435Z,3.57
2023-05-24T11:29:04.777Z,3.65
2023-05-24T11:34:27.595Z,3.38
2023-05-24T11:39:53.438Z,3.08
2023-05-24T11:45:18.879Z,2.90
2023-05-24T11:50:49.480Z,3.80
2023-05-24T11:56:12.423Z,2.63
2023-05-24T12:01:35.059Z,2.97
2023-05-24T12:06:58.003Z,3.05
2023-05-24T12:12:27.072Z,3.72
2023-05-24T12:18:00.396Z,2.75
2023-05-24T12:23:32.734Z,3.38
2023-05-24T12:28:58.503Z,2.80
2023-05-24T12:34:21.866Z,2.85
2023-05-24T12:39:45.166Z,2.92
2023-05-24T12:45:08.561Z,3.05
2023-05-24T12:50:31.650Z,2.92
2023-05-24T12:55:56.212Z,2.90
2023-05-24T13:01:19.216Z,2.60
2023-05-24T13:06:42.717Z,2.85
2023-05-24T13:12:06.221Z,3.00
2023-05-24T13:17:29.117Z,3.00
2023-05-24T13:22:51.467Z,2.90
2023-05-24T13:28:13.637Z,2.85
2023-05-24T13:33:36.380Z,2.97
2023-05-24T13:39:13.539Z,3.30
2023-05-24T13:44:38.706Z,3.05
2023-05-24T13:50:01.096Z,2.83
2023-05-24T13:55:23.967Z,2.90
2023-05-24T14:00:47.292Z,3.00
2023-05-24T14:06:10.178Z,3.00
2023-05-24T14:11:34.113Z,3.08
2023-05-24T14:16:56.748Z,3.03
2023-05-24T14:22:19.260Z,2.60
2023-05-24T14:27:44.114Z,2.60
2023-05-24T14:33:08.351Z,2.85
2023-05-24T14:38:31.347Z,2.60
2023-05-24T14:43:54.914Z,3.10
2023-05-24T14:49:17.402Z,2.88
2023-05-24T14:54:39.977Z,2.63
2023-05-24T15:00:05.548Z,2.90
2023-05-24T15:05:28.779Z,2.88
2023-05-24T15:10:51.295Z,2.55
2023-05-24T15:16:14.035Z,2.92
2023-05-24T15:21:39.698Z,3.08
2023-05-24T15:27:02.325Z,2.95
2023-05-24T15:32:25.319Z,2.83
2023-05-24T15:37:47.628Z,2.38
2023-05-24T15:43:10.571Z,3.08
2023-05-24T15:48:32.823Z,2.63
2023-05-24T15:53:55.462Z,4.07
2023-05-24T15:59:19.721Z,2.97
2023-05-24T16:04:43.804Z,2.70
2023-05-24T16:10:06.609Z,2.80
2023-05-24T16:15:30.249Z,2.80
2023-05-24T16:20:52.576Z,2.67
2023-05-24T16:26:15.372Z,3.10
2023-05-24T16:31:38.053Z,2.97
2023-05-24T16:37:00.976Z,2.78
2023-05-24T16:42:23.250Z,3.22
2023-05-24T16:47:45.884Z,2.60
2023-05-24T16:53:08.478Z,2.88
2023-05-24T16:58:31.001Z,2.63
2023-05-24T17:03:53.218Z,2.53
2023-05-24T17:09:16.025Z,2.85
2023-05-24T17:14:38.588Z,3.60
2023-05-24T17:20:01.174Z,2.80
2023-05-24T17:25:23.618Z,3.10
2023-05-24T17:30:46.410Z,2.75
2023-05-24T17:36:09.749Z,3.20
2023-05-24T17:41:32.716Z,3.28
2023-05-24T17:46:57.524Z,3.22
2023-05-24T17:52:20.051Z,3.40
2023-05-24T17:57:42.587Z,2.92
2023-05-24T18:03:05.136Z,3.20
2023-05-24T18:08:27.408Z,3.45
2023-05-24T18:13:49.897Z,2.70
2023-05-24T18:19:12.601Z,2.72
2023-05-24T18:24:35.342Z,2.83
2023-05-24T18:29:57.907Z,3.63
2023-05-24T18:35:20.744Z,2.80
2023-05-24T18:40:43.306Z,2.90
2023-05-24T18:46:06.610Z,3.25
2023-05-24T18:51:29.098Z,3.00
2023-05-24T18:56:51.565Z,3.00
2023-05-24T19:02:14.218Z,3.28
2023-05-24T19:07:37.510Z,2.95
2023-05-24T19:13:03.480Z,3.40
2023-05-24T19:18:25.888Z,3.00
2023-05-24T19:23:48.196Z,3.43
2023-05-24T19:29:10.705Z,3.17
2023-05-24T19:34:35.357Z,3.13
2023-05-24T19:39:57.593Z,3.63
2023-05-24T19:45:19.846Z,9.07
2023-05-24T19:50:47.293Z,6.80
2023-05-24T19:56:11.520Z,3.20
2023-05-24T20:01:34.200Z,3.27
2023-05-24T20:06:56.402Z,3.60
2023-05-24T20:12:18.812Z,3.90
2023-05-24T20:17:41.433Z,3.47
2023-05-24T20:23:03.752Z,3.53
2023-05-24T20:28:30.683Z,3.40
2023-05-24T20:33:54.549Z,3.43
2023-05-24T20:39:17.252Z,3.93
2023-05-24T20:44:39.730Z,3.80
2023-05-24T20:50:02.095Z,3.80
2023-05-24T20:55:26.524Z,4.60
2023-05-24T21:00:49.151Z,4.30
2023-05-24T21:06:11.788Z,4.57
2023-05-24T21:11:34.098Z,4.33
2023-05-24T21:16:56.694Z,4.63
2023-05-24T21:22:19.057Z,4.20
2023-05-24T21:27:41.387Z,4.00
2023-05-24T21:33:03.945Z,4.03
2023-05-24T21:38:26.446Z,3.90
2023-05-24T21:43:48.551Z,4.63
2023-05-24T21:49:11.162Z,4.50
2023-05-24T21:54:33.772Z,3.90
2023-05-24T21:59:55.952Z,4.30
2023-05-24T22:05:19.153Z,3.90
2023-05-24T22:10:41.406Z,3.93
2023-05-24T22:16:03.874Z,3.97
2023-05-24T22:21:26.278Z,4.40
2023-05-24T22:26:49.994Z,4.33
2023-05-24T22:32:12.740Z,4.20
2023-05-24T22:37:36.499Z,4.87
2023-05-24T22:42:59.170Z,4.23
2023-05-24T22:48:26.517Z,4.90
2023-05-24T22:53:49.193Z,4.03
2023-05-24T22:59:11.862Z,4.23
2023-05-24T23:04:34.339Z,4.87
2023-05-24T23:09:56.904Z,4.67
2023-05-24T23:15:19.317Z,4.50
2023-05-24T23:20:42.976Z,3.70
2023-05-24T23:26:05.172Z,4.17
2023-05-24T23:31:27.805Z,4.63
2023-05-24T23:36:50.245Z,3.93
2023-05-24T23:42:12.783Z,4.30
2023-05-24T23:47:35.167Z,4.27
2023-05-24T23:52:57.760Z,4.00
2023-05-24T23:58:20.329Z,4.33
